Аэропорт: Курумоч. Самара

ICAO: UWWW

METAR:
2019-07-23 18:30:00
UWWW 231830Z 31002MPS CAVOK 19/11 Q1015 R33/CLRD60 NOSIG RMK QFE751/1001
METAR:
2019-07-23 16:58:00
TAF UWWW 231658Z 2318/2418 34003G09MPS 9999 SCT030 TX27/2411Z TN13/2401Z TEMPO 2318/2406 VRB01MPS BECMG 2406/2407 03003G09MPS TEMPO 2407/2418 06006G13MPS